Time;durP1;ratioP1;P1;durP2;ratioP2;P2;SDS_P1;SDS_P2;PMS_P1;PMS_P2;Temp;Humidity;BMP_temperature;BMP_pressure;BME280_temperature;BME280_humidity;BME280_pressure;Samples;Min_cycle;Max_cycle;Signal;HPM_P1;HPM_P2
2021/03/12 00:02:25;;;;;;;5.50;1.57;;;7.50;99.90;;;;;;5020117;28;20424;-79
2021/03/12 00:04:52;;;;;;;3.73;2.37;;;7.50;99.90;;;;;;5026216;28;20516;-79
2021/03/12 00:07:17;;;;;;;4.03;1.83;;;7.50;99.90;;;;;;5036076;28;20399;-79
2021/03/12 00:09:43;;;;;;;5.37;2.37;;;7.40;99.90;;;;;;5016705;28;20430;-79
2021/03/12 00:12:10;;;;;;;5.17;1.90;;;7.40;99.90;;;;;;5034530;28;20316;-79
2021/03/12 00:14:36;;;;;;;2.97;2.10;;;7.30;99.90;;;;;;5046106;28;20429;-78
2021/03/12 00:17:02;;;;;;;5.27;2.90;;;7.40;99.90;;;;;;5018966;28;20462;-78
2021/03/12 00:19:28;;;;;;;3.77;2.60;;;7.30;99.90;;;;;;5033662;28;20391;-78
2021/03/12 00:21:54;;;;;;;2.40;1.40;;;;;;;;;;5031713;28;20411;-78
2021/03/12 00:24:22;;;;;;;2.23;1.87;;;7.40;99.90;;;;;;5031748;28;20353;-79
2021/03/12 00:26:47;;;;;;;7.27;2.27;;;7.40;99.90;;;;;;5003396;28;20419;-79
2021/03/12 00:29:13;;;;;;;4.20;2.70;;;7.30;99.90;;;;;;5005001;28;20417;-79
2021/03/12 00:31:39;;;;;;;6.37;2.20;;;7.30;99.90;;;;;;5035116;28;20256;-79
2021/03/12 00:34:04;;;;;;;3.60;1.93;;;7.30;99.90;;;;;;5039315;28;20214;-79
2021/03/12 00:36:30;;;;;;;3.17;1.97;;;7.30;99.90;;;;;;5021323;28;20302;-79
2021/03/12 00:38:55;;;;;;;6.60;2.30;;;7.30;99.90;;;;;;5003580;28;20237;-79
2021/03/12 00:41:21;;;;;;;3.83;1.73;;;7.30;99.90;;;;;;5033047;28;21051;-79
2021/03/12 00:43:47;;;;;;;5.67;3.10;;;7.30;99.90;;;;;;5022329;28;20229;-79
2021/03/12 00:46:12;;;;;;;2.43;2.23;;;7.20;99.90;;;;;;5001918;28;20614;-79
2021/03/12 00:48:39;;;;;;;5.23;2.70;;;7.30;99.90;;;;;;4990574;28;20207;-79
2021/03/12 00:51:06;;;;;;;4.93;2.93;;;7.20;99.90;;;;;;5005243;28;20301;-79
2021/03/12 00:53:32;;;;;;;5.00;3.20;;;7.20;99.90;;;;;;5039166;28;20434;-79
2021/03/12 00:55:58;;;;;;;2.60;1.97;;;7.20;99.90;;;;;;5038962;28;20789;-80
2021/03/12 00:58:24;;;;;;;6.70;3.00;;;7.20;99.90;;;;;;5001520;28;20428;-80
2021/03/12 01:00:50;;;;;;;3.37;2.90;;;7.20;99.90;;;;;;5035578;28;20219;-80
2021/03/12 01:03:16;;;;;;;5.30;3.03;;;7.20;99.90;;;;;;5033310;28;21936;-80
2021/03/12 01:05:42;;;;;;;8.83;3.80;;;7.20;99.90;;;;;;5006928;28;20293;-80
2021/03/12 01:08:08;;;;;;;5.10;3.07;;;7.10;99.90;;;;;;5022265;28;20424;-79
2021/03/12 01:10:35;;;;;;;3.30;3.10;;;7.00;99.90;;;;;;5018394;28;20214;-79
2021/03/12 01:13:02;;;;;;;4.37;3.37;;;7.00;99.90;;;;;;5013179;28;20454;-79
2021/03/12 01:15:28;;;;;;;4.87;3.03;;;6.90;99.90;;;;;;5035110;28;20474;-80
2021/03/12 01:17:54;;;;;;;3.43;3.13;;;7.00;99.90;;;;;;5038818;28;20431;-80
2021/03/12 01:20:26;;;;;;;4.10;2.83;;;6.90;99.90;;;;;;5018630;28;20983;-80
2021/03/12 01:22:55;;;;;;;8.90;3.40;;;6.90;99.90;;;;;;5019253;28;20806;-80
2021/03/12 01:25:22;;;;;;;5.83;3.17;;;6.90;99.90;;;;;;5019592;28;20515;-80
2021/03/12 01:27:48;;;;;;;9.17;4.07;;;6.80;99.90;;;;;;5047004;28;21222;-79
2021/03/12 01:30:24;;;;;;;5.80;3.43;;;6.80;99.90;;;;;;5010973;28;20460;-79
2021/03/12 01:32:51;;;;;;;7.37;3.10;;;6.50;99.90;;;;;;5015227;28;20213;-78
2021/03/12 01:35:18;;;;;;;6.70;3.40;;;6.40;99.90;;;;;;5029439;28;20420;-78
2021/03/12 01:37:45;;;;;;;24.37;5.43;;;6.30;99.90;;;;;;5014058;28;20407;-78
2021/03/12 01:40:15;;;;;;;9.20;4.40;;;6.40;99.90;;;;;;5029416;28;20528;-78
2021/03/12 01:42:40;;;;;;;5.53;2.87;;;6.40;99.90;;;;;;5029763;28;20395;-78
2021/03/12 01:45:13;;;;;;;4.30;3.20;;;6.50;99.90;;;;;;5030928;28;20436;-78
2021/03/12 01:47:39;;;;;;;12.37;5.07;;;6.40;99.90;;;;;;5049092;28;20412;-78
2021/03/12 01:50:07;;;;;;;11.87;4.00;;;6.60;99.90;;;;;;5019659;28;20387;-78
2021/03/12 01:52:33;;;;;;;7.67;4.30;;;6.60;99.90;;;;;;4998504;28;20544;-78
2021/03/12 01:55:00;;;;;;;7.70;3.37;;;6.70;99.90;;;;;;5047282;28;21544;-78
2021/03/12 01:57:26;;;;;;;9.80;4.00;;;6.60;99.90;;;;;;5032009;28;20491;-78
2021/03/12 01:59:53;;;;;;;26.83;24.13;;;6.80;99.90;;;;;;5019878;28;20399;-78
2021/03/12 02:02:20;;;;;;;8.33;5.00;;;6.70;99.90;;;;;;5035555;28;20478;-78
2021/03/12 02:04:46;;;;;;;6.57;4.40;;;6.60;99.90;;;;;;5031100;28;20447;-78
2021/03/12 02:07:12;;;;;;;10.30;4.70;;;6.60;99.90;;;;;;5008125;28;20474;-78
2021/03/12 02:09:39;;;;;;;8.90;4.17;;;6.60;99.90;;;;;;5022267;28;22245;-78
2021/03/12 02:12:14;;;;;;;9.93;4.47;;;6.60;99.90;;;;;;5030707;28;20226;-78
2021/03/12 02:14:48;;;;;;;11.30;4.53;;;6.70;99.90;;;;;;5025692;28;20417;-79
2021/03/12 02:17:20;;;;;;;9.47;4.10;;;6.70;99.90;;;;;;5035417;22;20421;-87
2021/03/12 02:20:19;;;;;;;8.03;4.70;;;6.70;99.90;;;;;;5034765;28;21361;-88
2021/03/12 02:22:56;;;;;;;10.50;5.97;;;6.50;99.90;;;;;;5036385;28;20402;-87
2021/03/12 02:25:24;;;;;;;9.67;6.00;;;6.40;99.90;;;;;;5035368;28;20837;-87
2021/03/12 02:27:51;;;;;;;10.63;5.57;;;6.20;99.90;;;;;;5033863;28;20395;-87
2021/03/12 02:30:17;;;;;;;6.00;4.13;;;6.30;99.90;;;;;;5054107;28;20428;-88
2021/03/12 02:32:45;;;;;;;15.63;7.47;;;6.20;99.90;;;;;;5023969;28;20566;-88
2021/03/12 02:35:21;;;;;;;13.13;6.80;;;6.10;99.90;;;;;;5051381;28;20439;-88
2021/03/12 02:37:49;;;;;;;7.17;5.97;;;5.90;99.90;;;;;;5022820;28;20400;-88
2021/03/12 02:40:17;;;;;;;7.30;6.50;;;5.70;99.90;;;;;;5048853;28;20384;-87
2021/03/12 02:42:45;;;;;;;13.80;9.60;;;5.70;99.90;;;;;;5051684;28;20398;-87
2021/03/12 02:45:12;;;;;;;11.50;7.53;;;5.80;99.90;;;;;;5050127;28;20478;-88
2021/03/12 02:47:40;;;;;;;14.40;9.90;;;5.80;99.90;;;;;;5022159;28;20419;-87
2021/03/12 02:50:08;;;;;;;11.93;8.20;;;5.80;99.90;;;;;;5036998;28;20890;-88
2021/03/12 02:52:34;;;;;;;13.63;7.90;;;5.90;99.90;;;;;;5046195;28;20431;-88
2021/03/12 02:55:01;;;;;;;19.30;7.47;;;6.10;99.90;;;;;;5019506;28;20446;-87
2021/03/12 02:57:27;;;;;;;8.90;7.40;;;6.10;99.90;;;;;;5021073;28;20426;-88
2021/03/12 02:59:54;;;;;;;13.63;8.17;;;6.20;99.90;;;;;;5019944;28;20503;-87
2021/03/12 03:02:25;;;;;;;11.70;6.83;;;6.20;99.90;;;;;;5017433;28;20465;-87
2021/03/12 03:04:54;;;;;;;6.90;5.40;;;6.40;99.90;;;;;;5015674;28;20460;-87
2021/03/12 03:07:21;;;;;;;15.53;6.33;;;6.40;99.90;;;;;;5020125;28;20434;-88
2021/03/12 03:09:48;;;;;;;9.70;5.90;;;6.40;99.90;;;;;;5028533;28;21271;-87
2021/03/12 03:12:17;;;;;;;10.13;6.40;;;6.40;99.90;;;;;;5018088;28;20440;-88
2021/03/12 03:14:51;;;;;;;11.70;6.33;;;6.40;99.90;;;;;;5023361;28;20785;-88
2021/03/12 03:17:18;;;;;;;15.03;5.70;;;6.40;99.90;;;;;;5053511;28;20427;-88
2021/03/12 03:19:48;;;;;;;8.47;5.30;;;6.40;99.90;;;;;;5056645;28;20395;-88
2021/03/12 03:22:19;;;;;;;11.30;5.90;;;6.40;99.90;;;;;;5052533;28;20420;-88
2021/03/12 03:24:44;;;;;;;6.10;3.53;;;6.30;99.90;;;;;;5042308;28;20790;-87
2021/03/12 03:27:11;;;;;;;10.53;4.43;;;;;;;;;;5082431;27;20395;-88
2021/03/12 03:29:38;;;;;;;8.93;3.57;;;6.80;99.90;;;;;;5044345;28;20202;-87
2021/03/12 03:32:05;;;;;;;12.20;5.23;;;6.50;99.90;;;;;;5051127;28;20388;-87
2021/03/12 03:34:31;;;;;;;7.60;4.80;;;6.30;99.90;;;;;;5070437;28;20427;-88
2021/03/12 03:36:57;;;;;;;8.27;4.40;;;6.60;99.90;;;;;;5055874;28;20926;-88
2021/03/12 03:39:22;;;;;;;9.90;4.07;;;6.60;99.90;;;;;;5061311;28;20254;-88
2021/03/12 03:41:51;;;;;;;5.10;4.47;;;6.20;99.90;;;;;;5055418;28;20338;-88
2021/03/12 03:44:24;;;;;;;9.20;4.70;;;6.60;99.90;;;;;;5074143;28;20419;-88
2021/03/12 03:46:52;;;;;;;7.47;4.23;;;6.70;99.90;;;;;;5043390;28;20426;-87
2021/03/12 03:49:18;;;;;;;11.07;4.33;;;6.70;99.90;;;;;;5041022;28;20482;-87
2021/03/12 03:51:46;;;;;;;9.10;4.90;;;6.70;99.90;;;;;;5048435;28;20467;-89
2021/03/12 03:54:14;;;;;;;7.33;3.13;;;6.70;99.90;;;;;;5057871;28;21285;-90
2021/03/12 03:56:42;;;;;;;8.10;3.67;;;6.70;99.90;;;;;;5061472;28;20922;-90
2021/03/12 03:59:08;;;;;;;10.63;4.57;;;6.70;99.90;;;;;;5058883;28;21253;-90
2021/03/12 04:01:39;;;;;;;11.90;4.27;;;6.60;99.90;;;;;;5074275;28;20429;-90
2021/03/12 04:04:07;;;;;;;6.03;3.57;;;6.90;99.90;;;;;;5072025;28;20426;-90
2021/03/12 04:06:34;;;;;;;6.90;3.87;;;6.70;99.90;;;;;;5041448;28;20442;-90
2021/03/12 04:09:02;;;;;;;7.60;3.93;;;6.70;99.90;;;;;;5072968;28;20409;-89
2021/03/12 04:11:28;;;;;;;8.67;4.43;;;6.70;99.90;;;;;;5058912;28;21023;-90
2021/03/12 04:13:56;;;;;;;6.37;3.47;;;7.40;99.90;;;;;;5054292;28;20455;-90
2021/03/12 04:16:22;;;;;;;8.80;4.33;;;6.70;99.90;;;;;;5069613;28;20798;-89
2021/03/12 04:18:48;;;;;;;15.20;3.77;;;6.70;99.90;;;;;;5068494;28;20402;-90
2021/03/12 04:21:17;;;;;;;5.10;3.30;;;6.80;99.90;;;;;;5057321;28;20955;-89
2021/03/12 04:23:44;;;;;;;11.00;3.80;;;6.80;99.90;;;;;;5069986;28;21163;-90
2021/03/12 04:26:10;;;;;;;7.20;3.60;;;6.80;99.90;;;;;;5055090;28;20382;-89
2021/03/12 04:28:36;;;;;;;7.17;3.83;;;6.80;99.90;;;;;;5075064;28;20394;-89
2021/03/12 04:31:03;;;;;;;10.67;4.10;;;6.80;99.90;;;;;;5059135;28;20438;-89
2021/03/12 04:33:29;;;;;;;6.47;3.63;;;6.70;99.90;;;;;;5054804;28;20481;-89
2021/03/12 04:35:55;;;;;;;5.50;3.97;;;6.70;99.90;;;;;;5042011;28;20503;-89
2021/03/12 04:38:22;;;;;;;8.80;3.60;;;6.70;99.90;;;;;;5052991;28;20484;-89
2021/03/12 04:40:48;;;;;;;5.53;4.00;;;6.70;99.90;;;;;;5066302;28;21200;-88
2021/03/12 04:43:15;;;;;;;3.57;3.00;;;6.70;99.90;;;;;;5039014;28;20469;-89
2021/03/12 04:45:41;;;;;;;5.93;4.40;;;6.70;99.90;;;;;;5054335;28;20467;-89
2021/03/12 04:48:08;;;;;;;6.80;3.30;;;6.70;99.90;;;;;;5057794;28;20479;-88
2021/03/12 04:50:35;;;;;;;5.23;3.67;;;6.70;99.90;;;;;;5057908;28;20415;-88
2021/03/12 04:53:01;;;;;;;4.70;3.23;;;6.70;99.90;;;;;;5075995;28;20438;-88
2021/03/12 04:55:27;;;;;;;6.33;3.43;;;6.70;99.90;;;;;;5062237;28;20926;-88
2021/03/12 04:57:54;;;;;;;3.90;3.50;;;6.70;99.90;;;;;;5054784;28;20393;-88
2021/03/12 05:00:21;;;;;;;11.13;4.20;;;6.70;99.90;;;;;;5040499;28;20453;-88
2021/03/12 05:02:47;;;;;;;4.63;3.17;;;6.70;99.90;;;;;;5036402;28;20398;-88
2021/03/12 05:05:14;;;;;;;4.67;3.43;;;6.70;99.90;;;;;;5040410;28;20801;-88
2021/03/12 05:07:40;;;;;;;6.10;4.30;;;6.70;99.90;;;;;;5070764;28;20397;-89
2021/03/12 05:10:07;;;;;;;8.17;4.10;;;6.60;99.90;;;;;;5054788;28;20398;-88
2021/03/12 05:12:33;;;;;;;10.23;3.90;;;6.60;99.90;;;;;;5056122;28;20477;-89
2021/03/12 05:15:00;;;;;;;4.13;3.20;;;6.60;99.90;;;;;;5041082;28;20846;-88
2021/03/12 05:17:27;;;;;;;6.67;3.83;;;6.60;99.90;;;;;;5039130;28;20447;-88
2021/03/12 05:19:53;;;;;;;11.63;4.40;;;6.60;99.90;;;;;;5077579;28;20205;-89
2021/03/12 05:22:19;;;;;;;15.77;5.20;;;6.60;99.90;;;;;;5057159;28;20445;-88
2021/03/12 05:24:45;;;;;;;10.13;3.70;;;6.60;99.90;;;;;;5023932;28;20398;-88
2021/03/12 05:27:10;;;;;;;9.50;4.70;;;6.40;99.90;;;;;;5027862;28;20421;-89
2021/03/12 05:29:37;;;;;;;15.73;4.70;;;;;;;;;;5059282;28;20420;-89
2021/03/12 05:32:03;;;;;;;5.97;3.63;;;6.50;99.90;;;;;;5084269;27;20438;-89
2021/03/12 05:34:29;;;;;;;9.87;4.57;;;6.50;99.90;;;;;;5068113;28;20512;-88
2021/03/12 05:36:55;;;;;;;9.80;3.57;;;6.50;99.90;;;;;;5010070;28;20378;-88
2021/03/12 05:39:21;;;;;;;5.23;2.67;;;6.50;99.90;;;;;;5066972;28;20794;-88
2021/03/12 05:41:48;;;;;;;5.30;2.90;;;6.50;99.90;;;;;;5057243;28;20296;-88
2021/03/12 05:44:15;;;;;;;6.80;3.43;;;6.50;99.90;;;;;;5053611;28;20835;-88
2021/03/12 05:46:41;;;;;;;8.03;3.57;;;6.50;99.90;;;;;;5034107;28;20875;-88
2021/03/12 05:49:08;;;;;;;5.93;3.33;;;6.40;99.90;;;;;;5054537;28;20914;-88
2021/03/12 05:51:35;;;;;;;4.93;3.40;;;6.40;99.90;;;;;;5051409;28;20228;-89
2021/03/12 05:54:02;;;;;;;6.67;3.73;;;6.40;99.90;;;;;;5056752;28;21062;-88
2021/03/12 05:56:28;;;;;;;4.43;3.00;;;6.30;99.90;;;;;;5060631;28;20974;-88
2021/03/12 05:58:54;;;;;;;6.93;3.20;;;6.20;99.90;;;;;;5060716;28;20407;-88
2021/03/12 06:01:20;;;;;;;15.47;3.10;;;6.10;99.90;;;;;;5090496;27;20324;-88
2021/03/12 06:03:46;;;;;;;7.63;2.77;;;6.10;99.90;;;;;;5023964;28;21071;-88
2021/03/12 06:06:12;;;;;;;12.43;3.53;;;6.10;99.90;;;;;;5041799;28;20229;-88
2021/03/12 06:08:37;;;;;;;6.40;2.70;;;6.10;99.90;;;;;;5052783;28;20201;-89
2021/03/12 06:11:04;;;;;;;8.57;3.00;;;6.00;99.90;;;;;;5072587;28;21453;-89
2021/03/12 06:13:30;;;;;;;4.63;2.60;;;6.10;99.90;;;;;;5057530;28;20272;-89
2021/03/12 06:15:56;;;;;;;14.70;3.67;;;6.10;99.90;;;;;;5045851;28;20399;-89
2021/03/12 06:18:27;;;;;;;22.73;3.47;;;6.10;99.90;;;;;;5041839;28;20486;-89
2021/03/12 06:20:54;;;;;;;13.67;3.43;;;6.10;99.90;;;;;;5045369;28;20510;-89
2021/03/12 06:23:55;;;;;;;6.40;2.67;;;6.10;99.90;;;;;;5062466;28;21764;-90
2021/03/12 06:26:21;;;;;;;4.93;2.73;;;6.10;99.90;;;;;;5012164;28;20401;-90
2021/03/12 06:29:08;;;;;;;7.50;2.90;;;6.10;99.90;;;;;;5028955;28;20578;-90
2021/03/12 06:31:33;;;;;;;4.07;2.83;;;6.30;99.90;;;;;;5010573;28;20712;-90
2021/03/12 06:34:10;;;;;;;5.50;2.90;;;6.40;99.90;;;;;;5009718;28;20911;-90
2021/03/12 06:36:37;;;;;;;11.00;3.40;;;;;;;;;;5018611;28;20241;-90
2021/03/12 06:39:04;;;;;;;12.00;4.53;;;;;;;;;;5027792;28;20413;-90
2021/03/12 06:41:37;;;;;;;8.40;2.00;;;;;;;;;;5021765;28;20429;-90
2021/03/12 06:44:39;;;;;;;7.87;3.70;;;6.60;99.90;;;;;;5021816;28;20412;-90
2021/03/12 06:47:06;;;;;;;6.60;2.57;;;6.60;99.90;;;;;;5016333;28;20397;-89
2021/03/12 06:49:32;;;;;;;9.37;3.43;;;6.60;99.90;;;;;;5007821;28;20382;-89
2021/03/12 06:52:02;;;;;;;10.47;3.47;;;6.60;99.90;;;;;;5028349;28;20620;-90
2021/03/12 06:54:34;;;;;;;7.87;3.23;;;6.70;99.90;;;;;;5039973;28;21139;-90
2021/03/12 06:57:21;;;;;;;10.73;3.63;;;6.80;99.90;;;;;;5014198;28;20426;-90
2021/03/12 06:59:57;;;;;;;6.13;3.23;;;6.90;99.90;;;;;;5034707;28;20502;-89
2021/03/12 07:02:34;;;;;;;3.97;2.40;;;6.90;99.90;;;;;;5074754;28;20424;-90
2021/03/12 07:05:00;;;;;;;8.43;2.90;;;7.10;99.90;;;;;;5044433;28;20678;-90
2021/03/12 07:07:36;;;;;;;14.90;3.10;;;;;;;;;;5028695;28;20462;-90
2021/03/12 07:10:06;;;;;;;15.70;3.20;;;7.20;99.90;;;;;;5064643;28;20467;-90
2021/03/12 07:12:50;;;;;;;6.93;3.70;;;7.10;99.90;;;;;;5047917;28;20446;-88
2021/03/12 07:15:17;;;;;;;8.97;4.67;;;7.10;99.90;;;;;;5054167;28;21071;-89
2021/03/12 07:17:43;;;;;;;13.37;3.23;;;7.30;99.90;;;;;;5062318;28;20422;-90
2021/03/12 07:20:11;;;;;;;6.60;2.80;;;7.20;99.90;;;;;;5061108;28;20354;-90
2021/03/12 07:22:39;;;;;;;12.70;4.00;;;7.10;99.90;;;;;;5064834;28;21093;-90
2021/03/12 07:25:07;;;;;;;6.90;3.80;;;7.20;99.90;;;;;;5038305;28;20416;-91
2021/03/12 07:27:35;;;;;;;10.83;3.20;;;7.20;99.90;;;;;;5099776;27;20381;-90
2021/03/12 07:30:05;;;;;;;10.03;3.20;;;7.20;99.90;;;;;;5060677;28;20415;-90
2021/03/12 07:32:33;;;;;;;6.33;4.17;;;7.20;99.90;;;;;;5082306;28;20416;-90
2021/03/12 07:35:01;;;;;;;11.63;3.73;;;7.30;99.90;;;;;;5085239;28;20390;-91
2021/03/12 07:37:27;;;;;;;10.50;4.20;;;7.40;99.90;;;;;;5063517;28;20387;-90
2021/03/12 07:39:57;;;;;;;14.30;3.87;;;7.20;99.90;;;;;;5032569;28;20370;-91
2021/03/12 07:42:25;;;;;;;9.23;3.47;;;7.30;99.90;;;;;;5033855;28;20435;-91
2021/03/12 07:44:58;;;;;;;6.23;3.37;;;7.30;99.90;;;;;;5081336;28;20876;-89
2021/03/12 07:47:26;;;;;;;11.90;3.60;;;7.40;99.90;;;;;;5065591;28;20856;-89
2021/03/12 07:49:53;;;;;;;3.20;2.50;;;7.50;99.90;;;;;;5048447;28;20404;-89
2021/03/12 07:52:49;;;;;;;13.80;4.40;;;7.50;99.90;;;;;;5049840;28;20518;-89
2021/03/12 07:55:35;;;;;;;8.77;3.17;;;7.70;99.90;;;;;;5065086;28;21148;-90
2021/03/12 07:58:01;;;;;;;14.17;3.80;;;7.60;99.90;;;;;;5049410;28;20492;-90
2021/03/12 08:00:27;;;;;;;8.87;3.80;;;7.90;99.90;;;;;;5045964;28;20909;-90
2021/03/12 08:02:58;;;;;;;6.57;3.17;;;7.60;99.90;;;;;;5062054;28;20447;-90
2021/03/12 08:05:44;;;;;;;9.00;3.00;;;7.90;99.90;;;;;;5050139;28;20201;-90
2021/03/12 08:08:34;;;;;;;15.07;4.80;;;7.90;99.90;;;;;;5069460;28;20486;-90
2021/03/12 08:11:21;;;;;;;5.60;2.40;;;8.40;99.90;;;;;;5069000;28;20481;-90
2021/03/12 08:13:48;;;;;;;9.10;2.90;;;8.10;99.90;;;;;;5049040;28;20466;-89
2021/03/12 08:16:14;;;;;;;14.93;4.70;;;;;;;;;;5085292;28;20440;-90
2021/03/12 08:18:41;;;;;;;6.10;2.67;;;8.00;99.90;;;;;;5064546;28;20473;-89
2021/03/12 08:21:32;;;;;;;4.73;2.90;;;7.90;99.90;;;;;;5050404;28;20408;-90
2021/03/12 08:23:59;;;;;;;13.13;4.33;;;;;;;;;;5103583;27;20407;-89
2021/03/12 08:26:51;;;;;;;14.27;3.40;;;7.80;99.90;;;;;;5053842;28;20384;-89
2021/03/12 08:29:35;;;;;;;14.17;3.97;;;8.00;99.90;;;;;;5060579;28;20390;-90
2021/03/12 08:32:23;;;;;;;8.10;4.50;;;8.20;99.90;;;;;;5057242;28;20408;-90
2021/03/12 08:34:48;;;;;;;5.70;3.13;;;8.30;99.90;;;;;;5053846;28;20398;-89
2021/03/12 08:37:30;;;;;;;6.60;2.87;;;8.40;99.90;;;;;;5072305;28;20414;-89
2021/03/12 08:40:17;;;;;;;6.50;2.90;;;8.50;99.90;;;;;;5113337;27;20222;-90
2021/03/12 08:42:56;;;;;;;6.53;3.97;;;8.90;99.90;;;;;;5055865;28;21344;-89
2021/03/12 08:45:35;;;;;;;16.80;4.60;;;9.80;99.90;;;;;;5067507;28;21399;-89
2021/03/12 08:48:08;;;;;;;11.03;4.10;;;10.10;99.90;;;;;;5053778;28;21146;-89
2021/03/12 08:50:55;;;;;;;10.70;3.27;;;9.60;99.90;;;;;;5063722;28;20411;-89
2021/03/12 08:53:27;;;;;;;12.67;3.77;;;9.40;99.90;;;;;;5056565;28;20377;-89
2021/03/12 08:55:55;;;;;;;16.70;4.07;;;9.00;99.90;;;;;;5081533;28;20419;-88
2021/03/12 08:58:22;;;;;;;21.00;4.00;;;8.70;99.90;;;;;;5048138;28;20395;-89
2021/03/12 09:00:52;;;;;;;13.30;3.57;;;8.80;99.90;;;;;;5057392;28;20407;-89
2021/03/12 09:03:29;;;;;;;13.27;3.53;;;8.80;99.90;;;;;;5081830;28;20903;-88
2021/03/12 09:06:09;;;;;;;8.30;2.60;;;8.60;99.90;;;;;;5050602;28;20415;-89
2021/03/12 09:08:37;;;;;;;13.13;3.70;;;8.70;99.90;;;;;;5084220;28;20944;-88
2021/03/12 09:11:07;;;;;;;16.73;4.03;;;8.90;99.90;;;;;;5068614;28;20403;-89
2021/03/12 09:13:38;;;;;;;8.70;3.47;;;8.80;99.90;;;;;;5048664;28;20876;-88
2021/03/12 09:16:05;;;;;;;9.53;4.43;;;9.10;99.90;;;;;;5062042;28;20570;-89
2021/03/12 09:18:32;;;;;;;22.80;3.77;;;8.60;99.90;;;;;;5065353;28;20411;-89
2021/03/12 09:21:06;;;;;;;11.90;4.03;;;8.50;99.90;;;;;;5049781;28;20414;-89
2021/03/12 09:23:35;;;;;;;13.67;3.97;;;8.80;99.90;;;;;;5080740;28;20411;-89
2021/03/12 09:26:02;;;;;;;9.60;3.60;;;;;;;;;;5052881;28;21090;-88
2021/03/12 09:28:30;;;;;;;8.07;3.40;;;8.80;99.90;;;;;;5043096;28;20537;-88
2021/03/12 09:30:56;;;;;;;16.87;3.40;;;9.00;99.90;;;;;;5046405;28;20451;-88
2021/03/12 09:33:30;;;;;;;14.50;3.97;;;9.50;99.90;;;;;;5075337;28;20422;-88
2021/03/12 09:35:56;;;;;;;5.90;3.80;;;9.80;99.90;;;;;;5053309;28;21386;-90
2021/03/12 09:38:38;;;;;;;14.20;3.93;;;10.80;99.90;;;;;;5049986;28;20593;-90
2021/03/12 09:41:15;;;;;;;6.73;2.93;;;10.50;99.90;;;;;;5052426;28;20944;-90
2021/03/12 09:43:43;;;;;;;10.70;3.90;;;10.40;99.90;;;;;;5066687;28;20830;-90
2021/03/12 09:46:09;;;;;;;7.33;2.40;;;;;;;;;;5063047;28;20383;-89
2021/03/12 09:48:35;;;;;;;6.33;2.77;;;;;;;;;;5063811;28;20844;-90
2021/03/12 09:51:03;;;;;;;7.07;2.90;;;;;;;;;;5036025;28;20938;-89
2021/03/12 09:53:30;;;;;;;11.60;3.63;;;10.20;99.90;;;;;;5053761;28;20440;-90
2021/03/12 09:55:56;;;;;;;14.13;3.97;;;;;;;;;;5063351;28;21129;-90
2021/03/12 09:58:23;;;;;;;8.50;3.43;;;;;;;;;;5049102;28;20541;-89
2021/03/12 10:00:48;;;;;;;4.60;2.60;;;10.10;99.90;;;;;;5078393;28;20430;-89
2021/03/12 10:03:14;;;;;;;6.00;3.30;;;10.40;99.90;;;;;;5063479;28;20436;-89
2021/03/12 10:05:41;;;;;;;15.40;3.57;;;;;;;;;;5063635;28;20241;-88
2021/03/12 10:08:07;;;;;;;8.70;3.10;;;10.30;99.90;;;;;;5061214;28;20206;-89
2021/03/12 10:10:35;;;;;;;19.20;4.00;;;10.70;99.90;;;;;;5048341;28;20428;-89
2021/03/12 10:13:04;;;;;;;10.03;3.17;;;11.00;99.90;;;;;;5048915;28;20213;-88
2021/03/12 10:15:35;;;;;;;11.50;3.33;;;;;;;;;;5064095;28;20976;-89
2021/03/12 10:18:01;;;;;;;9.90;3.40;;;11.60;99.90;;;;;;5064737;28;20780;-89
2021/03/12 10:20:35;;;;;;;7.40;3.07;;;11.40;99.90;;;;;;5080964;28;20531;-90
2021/03/12 10:23:05;;;;;;;9.00;2.93;;;11.10;99.90;;;;;;5066842;28;20973;-89
2021/03/12 10:25:44;;;;;;;10.73;3.23;;;10.70;99.90;;;;;;5052160;28;20534;-89
2021/03/12 10:28:19;;;;;;;15.60;3.50;;;9.90;99.90;;;;;;5043781;28;20430;-89
2021/03/12 10:30:49;;;;;;;13.47;2.73;;;;;;;;;;5078492;28;20403;-90
2021/03/12 10:33:32;;;;;;;12.43;4.80;;;;;;;;;;5077801;28;20462;-90
2021/03/12 10:36:02;;;;;;;16.30;4.53;;;9.80;99.90;;;;;;5098907;27;20481;-89
2021/03/12 10:38:34;;;;;;;8.77;2.67;;;10.00;99.90;;;;;;5069566;28;20427;-89
2021/03/12 10:41:01;;;;;;;6.90;2.80;;;10.40;99.90;;;;;;5047332;28;20901;-89
2021/03/12 10:43:28;;;;;;;10.07;3.80;;;;;;;;;;5050003;28;20538;-89
2021/03/12 10:45:58;;;;;;;9.97;4.50;;;;;;;;;;5068749;28;20410;-89
2021/03/12 10:48:28;;;;;;;7.03;3.33;;;11.10;99.90;;;;;;5058326;28;20387;-90
2021/03/12 10:51:03;;;;;;;10.33;3.13;;;;;;;;;;5068643;28;20524;-89
2021/03/12 10:53:30;;;;;;;8.47;2.70;;;;;;;;;;5057482;28;20835;-89
2021/03/12 10:56:04;;;;;;;10.27;3.10;;;10.50;99.90;;;;;;5069583;28;20428;-89
2021/03/12 10:58:37;;;;;;;8.83;2.93;;;10.20;99.90;;;;;;5088469;28;20456;-87
2021/03/12 11:01:15;;;;;;;9.80;4.00;;;10.00;99.90;;;;;;5081057;28;20399;-88
2021/03/12 11:03:45;;;;;;;9.50;2.57;;;9.60;99.90;;;;;;5057645;28;20410;-88
2021/03/12 11:06:15;;;;;;;10.90;3.33;;;9.50;99.90;;;;;;5071173;28;20510;-88
2021/03/12 11:08:42;;;;;;;12.37;3.40;;;9.40;99.90;;;;;;5054981;28;20464;-89
2021/03/12 11:11:09;;;;;;;13.37;3.10;;;9.30;99.90;;;;;;5050130;28;20443;-89
2021/03/12 11:13:36;;;;;;;3.73;1.80;;;9.20;99.90;;;;;;5050115;28;20428;-89
2021/03/12 11:16:04;;;;;;;6.27;2.43;;;9.00;99.90;;;;;;5069100;28;20399;-90
2021/03/12 11:18:31;;;;;;;13.13;3.57;;;9.10;99.90;;;;;;5091912;28;20445;-89
2021/03/12 11:21:03;;;;;;;7.20;2.13;;;9.20;99.90;;;;;;5042172;28;20446;-89
2021/03/12 11:23:28;;;;;;;5.23;2.77;;;8.60;99.90;;;;;;5044938;28;21086;-88
2021/03/12 11:25:56;;;;;;;7.17;3.10;;;;;;;;;;5058557;28;20423;-89
2021/03/12 11:28:22;;;;;;;5.43;2.47;;;;;;;;;;5053978;28;20589;-89
2021/03/12 11:30:49;;;;;;;6.93;2.50;;;9.60;99.90;;;;;;5073113;28;20411;-90
2021/03/12 11:33:15;;;;;;;12.90;3.20;;;;;;;;;;5026118;28;20400;-89
2021/03/12 11:35:41;;;;;;;5.50;2.90;;;;;;;;;;5068060;28;20908;-89
2021/03/12 11:38:09;;;;;;;14.50;3.57;;;;;;;;;;5068021;28;20542;-89
2021/03/12 11:40:36;;;;;;;18.57;3.67;;;10.40;99.90;;;;;;5055011;28;20439;-89
2021/03/12 11:43:02;;;;;;;19.03;2.93;;;;;;;;;;5066453;28;20442;-89
2021/03/12 11:45:28;;;;;;;11.97;3.80;;;;;;;;;;5067855;28;20414;-90
2021/03/12 11:47:58;;;;;;;12.80;2.67;;;;;;;;;;5070928;28;20395;-90
2021/03/12 11:50:24;;;;;;;17.03;2.67;;;;;;;;;;5041584;28;20866;-90
2021/03/12 11:52:50;;;;;;;5.00;1.80;;;;;;;;;;5070758;28;20429;-88
2021/03/12 11:55:16;;;;;;;6.40;2.53;;;;;;;;;;5064696;28;20419;-89
2021/03/12 11:57:42;;;;;;;7.83;3.00;;;;;;;;;;5066766;28;20419;-89
2021/03/12 12:00:11;;;;;;;13.57;3.53;;;;;;;;;;5072346;28;20421;-89
2021/03/12 12:02:37;;;;;;;9.53;3.23;;;;;;;;;;5103473;27;20418;-90
2021/03/12 12:05:05;;;;;;;9.20;2.70;;;;;;;;;;5070605;28;20401;-91
2021/03/12 12:07:31;;;;;;;8.33;3.20;;;;;;;;;;5066928;28;20388;-89
2021/03/12 12:09:58;;;;;;;7.27;3.00;;;;;;;;;;5070465;28;21317;-90
2021/03/12 12:12:24;;;;;;;5.07;1.90;;;;;;;;;;5087019;28;20450;-90
2021/03/12 12:14:51;;;;;;;8.47;3.67;;;;;;;;;;5067655;28;20839;-89
2021/03/12 12:17:17;;;;;;;15.27;4.77;;;;;;;;;;5062783;28;20542;-89
2021/03/12 12:19:45;;;;;;;10.90;2.97;;;;;;;;;;5057277;28;20395;-90
2021/03/12 12:22:11;;;;;;;4.47;1.87;;;;;;;;;;5096440;27;20500;-91
2021/03/12 12:24:38;;;;;;;7.30;2.50;;;11.80;98.10;;;;;;5064207;28;20485;-90
2021/03/12 12:27:05;;;;;;;11.60;4.20;;;11.80;99.90;;;;;;5084749;28;20379;-90
2021/03/12 12:29:31;;;;;;;5.97;2.67;;;;;;;;;;5064401;28;20387;-90
2021/03/12 12:31:57;;;;;;;9.50;2.60;;;11.60;99.50;;;;;;5061712;28;20958;-90
2021/03/12 12:34:24;;;;;;;14.33;2.70;;;10.90;98.90;;;;;;5065526;28;20411;-90
2021/03/12 12:36:50;;;;;;;5.10;2.20;;;10.70;99.30;;;;;;5067057;28;20915;-91
2021/03/12 12:39:17;;;;;;;5.90;2.00;;;;;;;;;;5084727;28;20405;-91
2021/03/12 12:41:45;;;;;;;15.17;3.27;;;;;;;;;;5054499;28;20395;-91
2021/03/12 12:44:12;;;;;;;10.13;2.57;;;10.50;99.90;;;;;;5086360;28;20433;-90
2021/03/12 12:46:41;;;;;;;19.50;2.50;;;10.40;99.90;;;;;;5039531;28;20408;-90
2021/03/12 12:49:07;;;;;;;10.73;3.03;;;10.40;99.90;;;;;;5069462;28;20416;-91
2021/03/12 12:51:34;;;;;;;13.37;3.20;;;10.50;99.90;;;;;;5069702;28;20384;-89
2021/03/12 12:54:02;;;;;;;11.13;4.27;;;10.30;99.90;;;;;;5053082;28;20444;-90
2021/03/12 12:56:27;;;;;;;3.37;1.87;;;9.70;99.90;;;;;;5047558;28;20395;-90
2021/03/12 12:58:53;;;;;;;9.27;2.43;;;9.70;99.90;;;;;;5067157;28;20414;-90
2021/03/12 13:01:19;;;;;;;6.93;2.60;;;9.80;99.90;;;;;;5067513;28;20209;-90
2021/03/12 13:03:45;;;;;;;7.93;3.07;;;10.60;99.90;;;;;;5080589;28;20211;-90
2021/03/12 13:06:12;;;;;;;5.03;2.80;;;12.00;99.90;;;;;;5038481;28;20864;-90
2021/03/12 13:08:38;;;;;;;4.67;2.13;;;12.00;99.90;;;;;;5067823;28;20331;-89
2021/03/12 13:11:07;;;;;;;4.77;2.30;;;12.30;99.90;;;;;;5050360;28;21036;-90
2021/03/12 13:13:32;;;;;;;11.93;3.60;;;12.20;99.90;;;;;;5070387;28;20440;-90
2021/03/12 13:16:00;;;;;;;5.67;2.33;;;13.00;99.10;;;;;;5071445;28;20398;-90